Date,TemperatureHighF,TemperatureAvgF,TemperatureLowF,DewpointHighF,DewpointAvgF,DewpointLowF,HumidityHigh,HumidityAvg,HumidityLow,PressureMaxIn,PressureMinIn,WindSpeedMaxMPH,WindSpeedAvgMPH,GustSpeedMaxMPH,PrecipitationSumIn
2013-1-1,31.4,17.1,10.8,19.0,12.9,8.0,91,84,57,30.72,30.58,6,2,8,0.01
2013-1-2,15.9,10.9,7.3,14.0,8.5,5.0,91,89,88,30.70,30.62,5,1,7,0.00
2013-1-3,29.9,16.1,2.4,19.0,10.0,-1.0,90,78,54,30.62,30.45,7,2,14,0.00
2013-1-4,40.0,26.5,16.4,28.0,18.0,11.0,82,71,53,30.54,30.37,8,3,17,0.01
2013-1-5,29.6,24.6,19.9,24.0,19.7,16.0,90,82,66,30.38,30.30,9,1,10,0.00
2013-1-6,41.2,32.2,22.3,30.0,25.7,20.0,89,77,61,30.31,30.16,11,3,22,0.00
2013-1-7,48.5,40.4,34.1,37.0,32.5,27.0,86,74,59,30.19,30.06,19,7,30,0.00
2013-1-8,48.8,42.6,38.6,38.0,35.2,31.0,84,75,65,30.19,30.02,18,8,24,0.00
2013-1-9,45.8,37.2,24.1,34.0,28.7,20.0,86,72,57,30.01,29.74,17,6,32,0.03
2013-1-10,33.0,25.4,21.0,24.0,18.9,17.0,90,77,58,30.12,29.92,9,3,17,0.03
2013-1-11,28.7,20.6,14.7,17.0,13.6,11.0,88,75,53,30.36,30.11,7,2,11,0.00
2013-1-12,27.5,15.9,9.5,13.0,8.1,5.0,83,73,43,30.50,30.36,14,3,16,0.00
2013-1-13,29.1,16.3,6.0,10.0,5.1,0.0,82,64,36,30.58,30.48,9,2,15,0.00
2013-1-14,41.5,25.5,14.1,24.0,13.0,5.0,76,60,39,30.59,30.48,19,6,22,0.00
2013-1-15,50.6,35.4,23.9,27.0,20.4,15.0,75,56,34,30.69,30.57,14,5,16,0.00
2013-1-16,55.3,38.5,29.2,26.0,20.3,17.0,65,50,22,30.66,30.52,14,5,20,0.00
2013-1-17,51.2,36.4,28.1,24.0,20.5,18.0,71,55,29,30.55,30.41,8,3,13,0.00
2013-1-18,51.8,35.8,26.6,25.0,20.3,16.0,70,55,34,30.45,30.38,12,3,14,0.00
2013-1-19,55.5,36.1,27.8,25.0,19.9,17.0,69,54,29,30.46,30.36,10,3,15,0.00
2013-1-20,50.1,33.7,24.8,20.0,17.6,15.0,70,54,27,30.49,30.38,9,3,15,0.00
2013-1-21,54.2,35.2,22.8,20.0,15.9,9.0,72,49,17,30.40,30.24,9,3,17,0.00
2013-1-22,48.2,31.9,22.6,24.0,18.2,13.0,81,59,31,30.27,30.12,9,2,14,0.00
2013-1-23,51.3,39.6,29.5,36.0,26.8,19.0,84,62,33,30.15,29.92,12,3,20,0.00
2013-1-24,51.1,41.9,30.5,38.0,34.3,29.0,95,76,53,30.20,30.12,16,4,21,0.02
2013-1-25,45.4,42.5,37.3,39.0,37.8,34.0,91,83,77,30.16,29.93,15,6,25,0.03
2013-1-26,39.9,33.4,24.8,34.0,25.3,20.0,94,73,49,30.08,29.93,8,2,16,0.01
2013-1-27,38.7,31.0,24.5,26.0,22.5,17.0,86,72,44,30.16,30.07,9,3,15,0.00
2013-1-28,39.6,34.6,31.0,27.0,25.2,23.0,82,69,53,30.17,30.07,9,3,21,0.00
2013-1-29,46.2,39.8,36.6,33.0,29.6,27.0,75,67,59,30.41,30.13,16,4,23,0.00
2013-1-30,49.2,41.2,36.5,35.0,31.9,27.0,81,70,57,30.45,30.40,11,4,18,0.00
2013-1-31,49.1,37.9,30.3,34.0,30.4,27.0,88,75,54,30.41,30.32,13,4,17,0.00
2013-2-1,50.9,36.3,27.7,34.0,27.8,24.0,88,74,39,30.46,30.35,8,2,17,0.00
2013-2-2,49.7,34.9,22.6,33.0,27.8,20.0,91,77,51,30.49,30.34,11,2,11,0.00
2013-2-3,55.5,43.1,31.7,31.0,26.3,23.0,83,55,28,30.34,30.16,13,3,16,0.00
2013-2-4,52.1,44.3,34.4,29.0,24.6,20.0,69,47,32,30.17,29.94,7,2,17,0.00
2013-2-5,47.2,41.1,33.4,31.0,23.7,18.0,76,52,37,30.06,29.89,20,6,25,0.00
2013-2-6,47.9,38.2,32.2,27.0,24.4,21.0,76,59,36,30.13,29.93,12,4,20,0.00
2013-2-7,38.8,33.1,27.1,28.0,23.9,20.0,88,70,49,30.12,29.91,8,2,14,0.00
2013-2-8,39.0,30.0,19.7,25.0,20.5,16.0,92,70,40,30.25,30.12,9,2,15,0.00
2013-2-9,43.2,30.6,19.3,28.0,21.9,14.0,87,71,55,30.32,30.21,10,2,13,0.00
2013-2-10,44.9,33.2,22.5,28.0,22.6,20.0,92,68,39,30.36,30.28,7,2,10,0.00
2013-2-11,49.4,36.6,27.4,32.0,25.2,21.0,81,65,39,30.38,30.27,13,4,15,0.00
2013-2-12,49.9,38.7,32.8,33.0,28.7,25.0,84,69,43,30.46,30.38,10,4,20,0.00
2013-2-13,46.6,38.8,31.9,34.0,30.4,28.0,86,73,55,30.48,30.41,11,3,15,0.00
2013-2-14,53.1,40.2,30.6,36.0,32.0,28.0,89,75,48,30.57,30.48,9,3,16,0.00
2013-2-15,58.0,41.7,30.5,37.0,32.6,27.0,90,73,43,30.53,30.27,10,2,14,0.00
2013-2-16,53.3,40.4,27.8,33.0,26.6,20.0,84,60,36,30.28,30.11,17,6,20,0.00
2013-2-17,43.7,32.4,24.8,24.0,20.1,12.0,84,64,29,30.24,30.12,7,2,9,0.00
2013-2-18,39.3,31.1,23.3,25.0,22.0,19.0,86,70,50,30.12,29.80,6,1,9,0.00
2013-2-19,40.9,31.1,23.1,24.0,21.5,18.0,83,69,46,30.00,29.73,9,2,13,0.00
2013-2-20,41.4,31.3,22.0,25.0,20.9,17.0,86,67,43,30.11,30.01,9,2,10,0.00
2013-2-21,38.6,32.5,24.9,26.0,23.5,20.0,88,71,49,30.22,30.10,12,3,15,0.00
2013-2-22,44.2,35.6,27.1,34.0,28.0,23.0,91,74,59,30.21,29.90,24,7,30,0.03
2013-2-23,37.1,28.8,20.9,24.0,20.6,17.0,89,73,50,30.45,30.05,14,3,21,0.02
2013-2-24,46.4,33.2,22.7,30.0,22.8,18.0,85,68,43,30.48,30.14,12,5,18,0.00
2013-2-25,42.2,34.5,24.5,32.0,22.4,8.0,89,63,32,30.36,30.08,14,5,24,0.02
2013-2-26,47.6,35.2,22.6,21.0,17.5,13.0,86,53,26,30.41,30.29,11,4,21,0.00
2013-2-27,46.4,39.5,32.0,32.0,23.6,16.0,67,53,39,30.34,30.28,13,5,18,0.00
2013-2-28,54.9,44.8,38.9,40.0,36.9,30.0,83,74,53,30.46,30.26,17,6,23,0.00
2013-3-1,60.7,48.2,39.4,37.0,34.9,31.0,84,62,38,30.48,30.30,12,4,17,0.00
2013-3-2,56.1,46.0,38.4,35.0,32.4,27.0,74,61,37,30.30,30.09,12,4,16,0.00
2013-3-3,43.1,35.2,26.3,32.0,19.2,6.0,85,57,22,30.25,30.08,8,3,13,0.00
2013-3-4,51.0,33.4,16.4,21.0,17.1,12.0,84,55,26,30.29,30.03,6,2,10,0.00
2013-3-5,42.8,33.4,26.2,31.0,24.8,19.0,91,72,53,30.02,29.73,6,2,9,0.00
2013-3-6,42.9,34.2,29.8,33.0,27.9,23.0,95,79,54,30.01,29.57,20,4,22,0.06
2013-3-7,43.7,34.5,26.4,29.0,24.2,20.0,89,68,39,30.09,30.00,6,3,11,0.00
2013-3-8,45.0,33.0,23.6,32.0,26.7,21.0,93,79,46,30.25,30.05,9,2,13,0.02
2013-3-9,53.6,37.4,23.1,24.0,20.4,14.0,85,56,22,30.52,30.26,8,2,12,0.00
2013-3-10,59.2,43.5,30.8,37.0,26.5,13.0,74,55,18,30.52,30.36,14,5,19,0.00
2013-3-11,55.9,46.5,39.0,40.0,37.4,34.0,86,72,52,30.39,30.23,10,3,15,0.00
2013-3-12,63.6,48.5,36.3,39.0,32.4,19.0,88,59,18,30.25,30.11,11,3,15,0.00
2013-3-13,66.8,52.6,42.3,37.0,32.2,25.0,67,47,31,30.19,30.09,9,2,14,0.00
2013-3-14,66.8,51.9,41.6,35.0,28.5,17.0,65,45,17,30.16,30.02,14,5,21,0.00
2013-3-15,59.4,46.1,36.1,37.0,33.2,29.0,84,63,37,30.19,30.11,10,2,12,0.00
2013-3-16,51.0,41.4,30.4,33.0,29.9,24.0,90,65,42,30.15,29.94,13,5,28,0.00
2013-3-17,42.7,32.4,24.3,28.0,21.4,17.0,89,66,40,30.24,30.03,15,3,21,0.01
2013-3-18,51.3,35.3,19.5,26.0,16.9,-9.0,89,57,8,30.30,30.19,6,2,10,0.00
2013-3-19,51.8,39.3,29.5,41.0,28.1,20.0,91,67,36,30.22,29.80,6,2,12,0.12
2013-3-20,47.2,41.6,28.4,41.0,33.9,23.0,87,75,46,30.08,29.62,18,6,29,0.14
2013-3-21,42.2,32.0,24.2,25.0,19.8,14.0,83,63,33,30.28,30.10,12,4,17,0.00
2013-3-22,37.5,29.6,24.6,22.0,18.0,14.0,86,64,40,30.40,30.27,14,4,22,0.00
2013-3-23,43.7,32.5,23.4,20.0,18.2,17.0,81,58,35,30.41,30.29,7,2,11,0.00
2013-3-24,46.6,34.8,23.0,26.0,21.6,18.0,83,61,41,30.33,30.18,10,2,11,0.00
2013-3-25,49.8,40.3,29.7,30.0,27.0,24.0,79,60,44,30.18,29.96,7,2,11,0.00
2013-3-26,49.0,41.5,36.1,38.0,35.1,30.0,88,78,61,30.02,29.96,6,2,10,0.02
2013-3-27,56.0,43.0,33.5,42.0,36.5,31.0,94,80,47,30.03,29.92,11,3,18,0.08
2013-3-28,57.3,46.4,40.3,43.0,40.6,38.0,95,82,52,30.14,30.01,10,2,15,0.21
2013-3-29,59.6,48.7,38.6,44.0,40.4,37.0,94,75,50,30.23,30.14,14,2,14,0.01
2013-3-30,69.2,52.4,36.6,44.0,39.7,34.0,91,66,36,30.23,30.05,10,3,13,0.00
2013-3-31,65.4,51.5,35.7,44.0,38.0,33.0,90,63,37,30.05,29.87,9,3,14,0.00
2013-4-1,62.2,50.4,38.4,43.0,40.4,36.0,91,70,47,30.10,29.92,11,3,16,0.00
2013-4-2,62.8,49.0,39.3,41.0,37.8,35.0,86,68,42,30.16,30.07,8,3,14,0.00
2013-4-3,67.2,52.0,36.7,39.0,33.0,21.0,88,55,18,30.15,29.94,11,4,15,0.00
2013-4-4,62.5,51.9,44.9,41.0,37.9,35.0,79,60,42,29.92,29.67,19,4,29,0.00
2013-4-5,54.2,45.9,41.5,41.0,36.8,32.0,84,72,46,29.97,29.85,15,6,19,0.05
2013-4-6,53.0,45.6,39.4,38.0,34.6,29.0,87,67,42,29.97,29.83,13,6,21,0.01
2013-4-7,46.7,40.9,32.9,37.0,29.1,23.0,83,64,44,29.87,29.66,28,7,30,0.04
2013-4-8,47.0,37.0,26.4,28.0,25.1,22.0,83,64,47,30.29,29.88,13,4,17,0.00
2013-4-9,58.3,43.9,26.7,36.0,27.5,13.0,84,57,17,30.39,30.28,9,3,12,0.00
2013-4-10,60.1,49.8,35.7,44.0,36.8,29.0,80,62,39,30.28,30.06,15,7,24,0.00
2013-4-11,55.0,40.0,25.4,31.0,26.4,23.0,91,62,34,30.26,30.15,12,3,14,0.00
2013-4-12,62.2,43.6,27.7,36.0,26.8,9.0,84,58,13,30.17,29.75,18,5,26,0.00
2013-4-13,47.1,39.7,32.1,34.0,23.8,17.0,72,55,33,30.05,29.73,14,6,25,0.00
2013-4-14,43.1,33.5,26.9,28.0,22.6,19.0,90,65,42,30.07,29.91,9,3,17,0.00
2013-4-15,40.9,31.9,28.3,33.0,28.4,26.0,94,87,59,30.18,29.93,12,3,18,0.10
2013-4-16,42.6,33.8,28.4,31.0,27.9,23.0,93,81,46,30.43,30.18,12,4,16,0.12
2013-4-17,50.1,36.8,21.7,28.0,21.7,14.0,90,60,27,30.53,30.43,11,2,14,0.00
2013-4-18,60.6,46.1,33.9,39.0,32.7,26.0,78,62,42,30.46,30.30,8,4,16,0.00
2013-4-19,58.3,48.6,40.9,40.0,36.6,32.0,76,65,40,30.30,30.10,21,6,30,0.00
2013-4-20,57.9,45.8,33.9,34.0,31.8,26.0,88,62,30,30.27,30.18,11,4,20,0.00
2013-4-21,60.4,47.5,37.5,39.0,34.8,26.0,80,63,39,30.22,30.12,16,5,21,0.00
2013-4-22,54.0,43.4,34.7,35.0,25.9,18.0,85,54,27,30.42,30.22,11,4,17,0.00
2013-4-23,62.4,44.3,25.3,20.0,12.9,-3.0,70,35,7,30.42,30.14,12,3,18,0.00
2013-4-24,67.8,49.2,28.0,23.0,17.8,13.0,65,33,12,30.32,30.04,8,2,11,0.00
2013-4-25,71.9,55.8,39.5,35.0,28.4,21.0,55,37,22,30.10,29.98,13,4,17,0.00
2013-4-26,76.8,59.8,43.9,37.0,32.3,20.0,68,41,12,30.19,30.10,15,5,18,0.00
2013-4-27,71.0,53.5,45.9,35.0,30.2,-99.9,60,46,19,30.20,30.12,11,-14,19,0.00
2013-4-29,57.0,48.3,36.2,35.0,27.1,24.0,65,45,35,30.04,29.96,18,7,26,0.00
2013-4-30,50.5,37.8,25.3,24.0,20.7,18.0,81,54,28,30.45,30.05,16,4,19,0.00
2013-5-1,62.6,44.7,25.9,24.0,19.4,12.0,78,43,14,30.57,30.44,11,2,13,0.00
2013-5-2,75.0,56.3,34.1,26.0,17.4,-2.0,67,29,5,30.55,30.22,11,3,14,0.00
2013-5-3,69.9,57.1,39.6,32.0,28.9,24.0,61,36,22,30.25,30.12,11,4,18,0.00
2013-5-4,68.4,55.8,37.9,35.0,31.1,29.0,71,41,27,30.14,29.89,16,5,28,0.00
2013-5-5,72.0,58.6,45.0,36.0,32.8,30.0,56,39,26,29.91,29.72,14,5,21,0.00
2013-5-6,78.5,63.5,44.5,45.0,35.4,30.0,69,38,21,29.81,29.67,10,4,18,0.01
2013-5-7,77.2,63.5,50.5,46.0,43.0,33.0,81,52,20,29.87,29.74,18,5,24,0.00
2013-5-8,79.8,63.1,48.4,47.0,42.8,33.0,79,52,19,30.01,29.88,11,4,19,0.00
2013-5-9,81.9,63.5,50.3,53.0,45.9,40.0,82,57,23,30.07,29.96,16,4,24,0.09
2013-5-10,84.0,66.9,51.0,50.0,45.1,38.0,80,50,20,30.12,30.02,11,5,17,0.01
2013-5-11,86.1,70.8,56.9,54.0,48.3,36.0,74,49,17,30.11,29.92,15,4,16,0.00
2013-5-12,82.4,68.5,56.7,54.0,48.7,42.0,84,53,25,29.97,29.85,12,3,20,0.00
2013-5-13,70.0,57.7,43.6,48.0,41.9,34.0,85,58,36,30.09,29.90,19,5,29,0.00
2013-5-14,66.8,51.7,37.1,40.0,36.3,33.0,87,60,31,30.13,30.01,10,3,14,0.00
2013-5-15,63.0,50.3,41.4,47.0,39.3,35.0,84,68,37,30.06,29.94,9,2,14,0.05
2013-5-16,57.8,48.5,41.4,46.0,41.0,38.0,91,76,48,29.99,29.88,9,2,17,0.08
2013-5-17,57.2,48.0,39.5,42.0,38.7,35.0,93,72,47,30.06,29.92,9,2,20,0.02
2013-5-18,60.1,46.7,35.7,45.0,36.4,32.0,87,69,45,30.25,30.06,12,3,26,0.02
2013-5-19,64.3,50.4,38.7,42.0,36.1,34.0,82,61,35,30.34,30.25,13,4,18,0.00
2013-5-20,75.7,56.6,36.6,43.0,35.5,24.0,83,52,15,30.29,29.83,8,2,12,0.00
2013-5-21,56.3,48.3,34.3,42.0,31.8,23.0,80,55,29,29.89,29.66,18,6,28,0.01
2013-5-22,47.0,39.0,32.1,31.0,27.4,22.0,77,64,50,30.00,29.89,18,6,22,0.00
2013-5-23,55.5,44.7,33.2,33.0,29.1,25.0,79,57,32,30.02,29.96,9,4,14,0.00
2013-5-24,57.9,47.2,38.8,35.0,32.0,27.0,80,58,35,30.03,29.96,11,5,21,0.00
2013-5-25,64.7,49.1,34.8,44.0,34.6,30.0,88,62,31,30.04,29.92,9,3,15,0.01
2013-5-26,59.8,51.0,44.9,44.0,41.0,37.0,93,71,44,30.00,29.91,8,3,17,0.09
2013-5-27,58.5,49.6,43.8,48.0,40.9,37.0,82,72,60,29.97,29.75,11,4,19,0.08
2013-5-28,63.5,52.1,41.5,42.0,34.4,-99.9,85,57,32,29.88,29.72,10,-18,15,0.01
2013-5-29,58.9,51.2,44.2,45.0,38.7,35.0,90,64,44,29.97,29.64,16,6,25,0.08
2013-5-30,62.0,48.0,34.3,37.0,34.0,31.0,88,62,36,30.20,29.97,12,3,16,0.00
2013-5-31,70.2,53.3,33.8,38.0,33.3,24.0,87,53,22,30.29,30.17,10,3,13,0.00
2013-6-1,75.6,60.3,42.5,46.0,39.2,35.0,77,50,25,30.20,29.93,11,3,21,0.00
2013-6-2,71.3,57.5,45.0,45.0,40.0,32.0,85,57,23,29.98,29.86,11,3,18,0.00
2013-6-3,76.0,58.9,41.1,40.0,34.6,28.0,80,46,20,30.03,29.92,10,3,12,0.00
2013-6-4,78.8,63.2,44.1,40.0,34.3,29.0,66,37,19,30.05,29.94,8,2,16,0.00
2013-6-5,85.9,68.4,50.8,49.0,42.2,38.0,64,42,20,30.00,29.85,10,3,16,0.00
2013-6-6,86.1,70.0,54.4,54.0,47.7,44.0,71,49,23,29.91,29.80,12,3,17,0.00
2013-6-7,81.9,67.5,55.8,51.0,48.3,42.0,80,54,30,29.97,29.87,14,3,20,0.00
2013-6-8,86.3,68.9,52.0,49.0,40.8,15.0,81,44,9,29.99,29.89,13,4,19,0.00
2013-6-9,82.7,66.6,52.4,47.0,40.2,30.0,72,43,15,29.92,29.75,16,3,17,0.00
2013-6-10,77.5,60.0,42.6,39.0,34.2,23.0,73,43,16,29.82,29.68,11,3,16,0.00
2013-6-11,61.8,51.3,41.0,40.0,36.1,33.0,84,59,36,30.07,29.81,10,3,21,0.00
2013-6-12,61.8,48.8,35.7,37.0,34.1,31.0,84,60,37,30.11,30.05,13,3,18,0.00
2013-6-13,57.5,47.1,38.9,41.0,35.7,33.0,85,66,41,30.26,30.11,16,4,21,0.05
2013-6-14,71.4,55.0,36.4,39.0,33.2,26.0,91,51,19,30.26,29.97,8,3,14,0.00
2013-6-15,80.7,62.7,43.0,49.0,38.2,30.0,71,45,16,29.97,29.79,14,2,21,0.00
2013-6-16,79.4,63.1,51.4,55.0,45.7,41.0,76,56,28,30.00,29.86,11,3,17,0.04
2013-6-17,75.9,61.6,48.4,50.0,44.9,40.0,83,58,29,30.01,29.80,10,4,16,0.02
2013-6-18,60.9,53.2,46.4,48.0,42.8,36.0,85,69,45,29.90,29.81,12,3,21,0.07
2013-6-19,58.3,48.9,40.8,43.0,39.2,36.0,91,71,47,30.06,29.87,9,2,17,0.24
2013-6-20,61.7,49.1,33.7,40.0,35.9,31.0,93,63,37,30.11,30.03,13,3,18,0.00
2013-6-21,60.7,51.3,42.3,42.0,39.6,37.0,84,66,47,30.13,30.10,10,3,14,0.01
2013-6-22,76.1,59.9,41.6,47.0,41.3,37.0,85,55,28,30.11,29.83,9,3,12,0.00
2013-6-23,63.8,58.0,54.6,55.0,51.0,43.0,94,79,57,29.83,29.60,6,2,9,0.23
2013-6-24,59.6,53.5,47.2,53.0,48.8,45.0,95,84,67,29.70,29.59,7,2,11,0.17
2013-6-25,64.1,57.3,51.0,50.0,47.5,45.0,90,71,52,29.79,29.69,14,4,20,0.02
2013-6-26,66.2,61.6,53.1,59.0,54.5,50.0,90,77,66,30.03,29.91,8,2,11,0.04
2013-6-27,84.4,66.3,48.4,56.0,52.1,47.0,95,65,35,30.11,30.03,9,3,16,0.00
2013-6-28,91.0,73.6,55.5,60.0,55.5,52.0,87,58,29,30.11,29.90,11,3,16,0.00
2013-6-29,86.3,74.6,61.1,59.0,56.3,54.0,82,55,36,29.96,29.85,11,3,19,0.00
2013-6-30,94.2,77.4,58.0,59.0,55.3,52.0,80,50,27,29.93,29.74,16,3,17,0.00
2013-7-1,96.7,82.2,69.3,62.0,57.8,55.0,63,45,26,29.86,29.75,12,4,16,0.00
2013-7-2,98.0,82.2,68.5,62.0,58.3,50.0,77,48,20,29.89,29.77,13,3,19,0.00
2013-7-3,90.6,77.1,62.5,61.0,54.8,44.0,82,49,30,29.91,29.81,16,3,20,0.00
2013-7-4,81.8,68.2,54.0,48.0,42.1,28.0,74,43,16,29.91,29.79,13,4,19,0.00
2013-7-5,77.8,63.6,49.0,46.0,38.1,30.0,83,44,22,29.87,29.77,11,3,15,0.00
2013-7-6,82.2,62.5,44.7,47.0,36.8,32.0,71,43,17,29.85,29.72,8,2,12,0.00
2013-7-7,85.8,69.3,51.8,51.0,45.4,41.0,71,46,22,29.82,29.69,13,3,18,0.00
2013-7-8,85.6,67.3,53.9,51.0,42.7,33.0,80,48,17,29.96,29.82,9,3,12,0.00
2013-7-9,92.5,75.1,56.4,53.0,46.4,41.0,64,40,17,29.99,29.82,15,3,21,0.00
2013-7-10,88.5,74.9,63.0,54.0,48.1,41.0,65,42,20,29.91,29.70,11,3,18,0.00
2013-7-11,81.2,66.0,52.3,49.0,44.4,41.0,76,49,24,29.84,29.74,10,2,16,0.00
2013-7-12,76.8,62.3,48.9,43.0,37.6,26.0,79,44,16,29.98,29.81,12,3,19,0.00
2013-7-13,78.0,62.4,45.0,41.0,34.8,27.0,72,41,18,30.07,29.95,9,3,15,0.00
2013-7-14,88.7,70.1,50.4,47.0,35.8,26.0,50,30,17,30.05,29.84,12,2,18,0.00
2013-7-15,86.1,70.6,54.8,46.0,40.7,35.0,65,37,18,29.89,29.70,12,3,17,0.00
2013-7-16,82.4,70.6,61.9,50.0,39.4,33.0,43,33,23,29.87,29.71,11,4,17,0.00
2013-7-17,88.3,72.9,60.2,47.0,40.9,33.0,61,35,14,30.01,29.87,13,5,17,0.00
2013-7-18,91.2,73.8,55.9,49.0,41.0,34.0,58,36,14,30.05,29.87,10,3,16,0.00
2013-7-19,91.4,74.8,56.0,51.0,37.2,25.0,68,32,10,29.98,29.82,10,3,13,0.00
2013-7-20,92.7,74.9,59.8,50.0,38.1,16.0,66,33,7,29.89,29.74,11,3,19,0.00
2013-7-21,94.3,74.3,57.7,48.0,38.1,13.0,68,35,5,29.81,29.71,12,4,18,0.00
2013-7-22,93.7,75.2,57.8,45.0,37.5,23.0,60,31,9,29.88,29.78,10,4,15,0.00
2013-7-23,94.8,76.8,60.9,49.0,42.0,32.0,62,34,11,29.89,29.78,12,4,18,0.00
2013-7-24,92.0,76.1,61.7,50.0,40.4,21.0,57,32,9,29.90,29.83,10,2,12,0.00
2013-7-25,95.1,77.5,59.4,48.0,39.4,20.0,59,31,8,29.94,29.85,12,4,16,0.00
2013-7-26,94.1,78.2,60.8,44.0,36.6,30.0,47,24,11,29.97,29.85,12,3,17,0.00
2013-7-27,85.1,70.0,56.3,43.0,36.9,24.0,60,34,11,29.96,29.81,13,3,18,0.00
2013-7-28,81.3,66.5,52.7,44.0,36.8,23.0,65,38,16,29.87,29.78,10,3,15,0.00
2013-7-29,82.2,66.9,51.8,48.0,41.3,34.0,70,44,19,29.90,29.78,9,3,13,0.00
2013-7-30,85.2,68.8,52.9,47.0,39.4,26.0,74,41,12,30.01,29.91,10,3,17,0.00
2013-7-31,82.9,68.1,58.8,51.0,44.2,34.0,69,45,19,29.99,29.84,7,2,16,0.01
2013-8-1,72.5,58.9,51.7,55.0,48.1,43.0,89,69,39,30.00,29.86,10,2,13,0.15
2013-8-2,77.4,60.2,47.0,48.0,43.0,38.0,83,57,25,30.07,29.96,9,3,15,0.00
2013-8-3,82.2,64.9,48.7,48.0,41.7,33.0,79,49,18,30.05,29.91,8,3,14,0.00
2013-8-4,86.8,71.1,54.4,50.0,45.3,41.0,72,44,21,29.96,29.79,9,3,16,0.00
2013-8-5,87.1,71.8,58.9,50.0,46.7,37.0,64,44,18,29.89,29.78,9,3,16,0.00
2013-8-6,89.8,73.1,56.4,51.0,44.7,38.0,68,41,17,29.90,29.78,9,3,20,0.00
2013-8-7,82.6,70.2,58.1,46.0,43.0,36.0,58,40,20,29.91,29.82,12,2,20,0.00
2013-8-8,82.6,70.2,56.2,49.0,44.7,39.0,68,42,23,29.89,29.79,8,2,11,0.00
2013-8-9,83.4,67.4,55.4,58.0,49.4,45.0,83,55,27,29.87,29.72,13,2,23,0.20
2013-8-10,76.0,62.0,52.4,52.0,48.7,47.0,84,64,38,29.94,29.85,11,4,17,0.00
2013-8-27,74.9,66.2,59.4,53.0,52.5,51.0,75,62,45,29.75,29.71,9,2,12,0.00
2013-8-28,83.7,69.0,54.8,54.0,48.5,40.0,82,54,22,29.81,29.72,11,4,19,0.00
2013-8-29,80.4,68.5,59.4,54.0,50.0,44.0,77,55,29,29.98,29.79,13,4,22,0.00
2013-8-30,81.9,67.3,53.5,55.0,50.7,45.0,87,60,27,30.05,29.91,11,3,17,0.00
2013-8-31,87.5,69.4,52.2,55.0,50.8,47.0,85,56,26,29.97,29.75,11,2,15,0.00
2013-9-1,89.9,72.7,57.7,54.0,44.3,26.0,73,44,10,29.79,29.61,17,4,21,0.00
2013-9-2,85.2,67.6,55.3,54.0,50.2,36.0,80,58,18,29.82,29.67,9,3,17,0.00
2013-9-3,82.8,64.9,53.6,52.0,48.4,34.0,85,60,18,29.91,29.80,12,4,17,0.00
2013-9-4,83.0,64.3,52.9,51.0,46.9,34.0,82,59,20,29.93,29.83,12,3,16,0.00
2013-9-5,72.4,58.7,49.9,51.0,48.0,43.0,83,69,46,30.00,29.80,19,3,24,0.08
2013-9-6,69.4,58.7,50.5,50.0,46.6,44.0,85,66,47,30.09,30.00,12,6,20,0.02